首页
METAR-TAF:

METAR-TAF

机场 :

Churchill, 曼尼托巴, 加拿大

纬度: 58-44N, 经度: 094-04W, 海拔: 28米

当前天气观测

该预报发布于19分钟前的17:19 UTC
风速9节,风向东南
温度 -10°C
湿度 92%
气压 1014 hPa
能見度: 24.1公里
多云层高于800英尺
小雪

METAR: CYYQ 241719Z 14009KT 15SM -SN BKN008 M10/M11 A2994 RMK SC7 SLP143

时间: 11:38 (17:38 UTC)

预报

该预报发布于6小时和0分钟前的11:38 UTC
预报有效从24日的 12点(UTC)到 25日的 12点(UTC)
风速3节,风向多变
能見度: 10公里
阴天层高于2500英尺
短暂存在
从 24日的 12点(UTC)到 24日的 16点(UTC)
能見度: 6.4公里
阴天层高于1200英尺
小雪, 轻雾
从 24日的 1600点(UTC)
风速6节,风向南转南东
能見度: 10公里
阴天层高于2000英尺
小雪
短暂存在
从 24日的 16点(UTC)到 25日的 12点(UTC)
能見度: 3.2公里
阴天层高于600英尺
小雪, 轻雾

TAF: CYYQ 241138Z 2412/2512 VRB03KT P6SM OVC025 TEMPO 2412/2416 4SM -SN BR OVC012 FM241600 16006KT P6SM -SN OVC020 TEMPO 2416/2512 2SM -SN BR OVC006 RMK NXT FCST BY 241800Z

超过4000个机场的气象观测和天气预报(METAR&TAF报告)。

可查询的气象台以黄色和红色小点在地图上表示。

将鼠标移到小点上方,可查看气象台名称。

然后点击查看天气观测和预报。

如需切换地图:点击带黑十字的绿色按钮放大地图;点击带横线的绿色按钮缩小地图;或者点击绿色箭头查看邻近地区的地图。


METAR-TAF: